HIW weather

Hiroshimanishi Airport
Hiroshima Prefecture, Japan

Public forecast

Using degrees Celsius for public forecast. Weather courtesy of forecast.io.

Current aviation weather report (METAR) for Hiroshimanishi Airport

Report is more than 6 hours old.

Retrieved 2011/09/21 11:00 UTC (8 years ago):

RJBH 211100Z 02012KT 9999 FEW025 SCT080 20/12 Q1002

Closest aviation forecast (TAF) to Hiroshimanishi Airport

Forecast is more than 12 hours old.

Closest forecast is Iwakuni Marine Corps Air Station, 16.0 nm (29.7 km) SSW. Retrieved 2019/07/03 05:09 UTC (4 months ago):

TAF RJOI 030500Z 0305/0405 VRB06KT 4800 -SHRA SCT008 BKN015 OVC040 621909 QNH2975INS BECMG 0314/0315 02009KT 9000 BR BKN015 OVC050 622305 QNH2976INS TEMPO 0315/0319 8000 -SHRA VCTS BKN015CB BECMG 0319/0320 VRB06KT 6000 BR VCSH FEW005 BKN055 QNH2970INS BECMG 0401/0402 VRB06KT 9999 NSW FEW015 QNH2971INS T24/0308Z TN20/0319Z